Time;durP1;ratioP1;P1;durP2;ratioP2;P2;SDS_P1;SDS_P2;PMS_P1;PMS_P2;Temp;Humidity;BMP_temperature;BMP_pressure;BME280_temperature;BME280_humidity;BME280_pressure;Samples;Min_cycle;Max_cycle;Signal;HPM_P1;HPM_P2
2023/06/01 00:00:39;;;;;;;23.70;17.67;;;;;;;19.28;100.00;101626.56;2112634;28;20193;-61
2023/06/01 00:01:40;;;;;;;27.23;19.67;;;;;;;19.28;100.00;101623.78;2113066;28;20182;-60
2023/06/01 00:02:41;;;;;;;26.93;22.20;;;;;;;19.30;100.00;101623.31;2113379;28;20447;-60
2023/06/01 00:03:41;;;;;;;28.90;23.93;;;;;;;19.25;100.00;101621.88;2113876;28;20464;-60
2023/06/01 00:04:42;;;;;;;38.10;34.00;;;;;;;19.32;100.00;101626.41;2113663;28;20245;-60
2023/06/01 00:05:42;;;;;;;38.30;34.30;;;;;;;19.33;100.00;101628.78;2106406;28;20269;-60
2023/06/01 00:06:43;;;;;;;42.27;37.87;;;;;;;19.33;100.00;101623.16;2112838;28;20197;-60
2023/06/01 00:07:44;;;;;;;50.00;45.10;;;;;;;19.29;100.00;101622.50;2108717;28;20216;-60
2023/06/01 00:08:44;;;;;;;75.47;68.30;;;;;;;19.27;100.00;101618.59;2108474;28;20447;-60
2023/06/01 00:09:45;;;;;;;85.07;76.90;;;;;;;19.23;100.00;101615.97;2113178;28;20268;-60
2023/06/01 00:10:45;;;;;;;94.63;85.37;;;;;;;19.28;100.00;101628.59;2113509;28;20182;-60
2023/06/01 00:11:46;;;;;;;85.77;77.63;;;;;;;19.28;100.00;101625.78;2112787;28;20194;-60
2023/06/01 00:12:46;;;;;;;82.17;74.27;;;;;;;19.23;100.00;101615.97;2114139;28;20186;-59
2023/06/01 00:13:48;;;;;;;86.47;77.83;;;;;;;19.18;100.00;101621.41;2113429;28;20632;-60
2023/06/01 00:14:49;;;;;;;48.00;43.60;;;;;;;19.14;100.00;101615.91;2113068;28;20204;-60
2023/06/01 00:15:50;;;;;;;35.83;32.27;;;;;;;18.56;100.00;101549.84;2113480;28;20439;-59
2023/06/01 00:16:51;;;;;;;30.80;27.60;;;;;;;18.86;100.00;101614.34;2113585;28;20190;-60
2023/06/01 00:17:52;;;;;;;17.17;13.10;;;;;;;18.81;100.00;101612.16;2110606;28;20571;-59
2023/06/01 00:18:52;;;;;;;24.27;16.20;;;;;;;18.80;100.00;101621.81;2106280;28;20494;-59
2023/06/01 00:19:52;;;;;;;18.70;12.30;;;;;;;18.70;100.00;101620.25;2113208;28;20184;-60
2023/06/01 00:20:53;;;;;;;18.17;10.90;;;;;;;18.62;100.00;101626.63;2105750;28;20178;-60
2023/06/01 00:21:55;;;;;;;16.60;9.63;;;;;;;18.59;100.00;101622.72;2105630;28;20640;-60
2023/06/01 00:22:55;;;;;;;11.33;8.70;;;;;;;18.52;100.00;101622.97;2113942;28;20185;-60
2023/06/01 00:23:56;;;;;;;13.77;8.90;;;;;;;18.50;100.00;101617.06;2113358;28;20469;-60
2023/06/01 00:24:56;;;;;;;14.13;8.23;;;;;;;18.46;100.00;101616.41;2113243;28;20206;-61
2023/06/01 00:25:56;;;;;;;14.67;8.93;;;;;;;18.50;100.00;101624.69;2113510;28;20202;-60
2023/06/01 00:26:57;;;;;;;13.33;8.70;;;;;;;18.49;100.00;101615.50;2111677;28;20174;-60
2023/06/01 00:27:57;;;;;;;9.53;8.53;;;;;;;18.52;100.00;101620.16;2105513;28;20209;-60
2023/06/01 00:28:59;;;;;;;13.90;8.83;;;;;;;18.50;100.00;101619.88;2113646;28;20208;-60
2023/06/01 00:29:59;;;;;;;10.40;8.03;;;;;;;18.48;100.00;101619.53;2113398;28;20278;-59
2023/06/01 00:31:00;;;;;;;12.13;8.27;;;;;;;18.49;100.00;101623.13;2112405;28;20448;-60
2023/06/01 00:32:00;;;;;;;14.00;8.33;;;;;;;18.48;100.00;101616.72;2114351;28;20577;-60
2023/06/01 00:33:01;;;;;;;14.27;8.00;;;;;;;18.45;100.00;101619.69;2114399;28;20193;-59
2023/06/01 00:34:01;;;;;;;10.00;7.50;;;;;;;18.37;100.00;101621.22;2113964;28;20194;-59
2023/06/01 00:35:02;;;;;;;13.40;8.30;;;;;;;18.34;100.00;101617.31;2114298;28;20635;-60
2023/06/01 00:36:02;;;;;;;15.37;7.93;;;;;;;17.57;100.00;101516.56;2114738;28;20237;-60
2023/06/01 00:37:03;;;;;;;16.53;8.70;;;;;;;17.83;100.00;101546.00;2115752;28;20234;-60
2023/06/01 00:38:03;;;;;;;14.40;7.23;;;;;;;18.33;100.00;101624.19;2114872;28;20579;-60
2023/06/01 00:39:04;;;;;;;12.27;6.70;;;;;;;18.35;100.00;101620.88;2114923;28;20187;-60
2023/06/01 00:40:05;;;;;;;13.70;7.40;;;;;;;18.29;100.00;101621.47;2109250;28;20226;-59
2023/06/01 00:41:06;;;;;;;15.53;6.93;;;;;;;18.28;100.00;101611.47;2111367;28;20222;-59
2023/06/01 00:42:06;;;;;;;11.80;6.90;;;;;;;18.19;100.00;101617.03;2111188;28;20945;-59
2023/06/01 00:43:07;;;;;;;16.23;8.03;;;;;;;18.14;100.00;101606.41;2107946;28;20175;-60
2023/06/01 00:44:07;;;;;;;16.20;7.27;;;;;;;18.14;100.00;101614.84;2113750;28;20681;-60
2023/06/01 00:45:08;;;;;;;12.10;7.03;;;;;;;18.00;100.00;101580.97;2107213;28;20381;-59
2023/06/01 00:46:09;;;;;;;10.97;7.00;;;;;;;18.19;100.00;101610.66;2114750;28;20194;-60
2023/06/01 00:47:10;;;;;;;11.90;7.07;;;;;;;18.19;100.00;101605.81;2115109;28;20200;-59
2023/06/01 00:48:12;;;;;;;10.57;7.30;;;;;;;18.21;100.00;101613.78;2108896;28;20451;-60
2023/06/01 00:49:13;;;;;;;12.50;7.40;;;;;;;18.22;100.00;101611.78;2111329;28;20592;-61
2023/06/01 00:50:13;;;;;;;12.90;7.03;;;;;;;18.18;100.00;101618.28;2114760;28;20539;-59
2023/06/01 00:51:15;;;;;;;8.60;6.73;;;;;;;18.18;100.00;101620.34;2112522;28;20198;-60
2023/06/01 00:52:15;;;;;;;15.50;7.60;;;;;;;18.16;100.00;101614.38;2106157;28;20569;-59
2023/06/01 00:53:18;;;;;;;10.93;6.73;;;;;;;18.08;100.00;101613.88;2106591;28;20435;-59
2023/06/01 00:54:19;;;;;;;12.93;7.37;;;;;;;18.07;100.00;101616.38;2105673;28;20309;-60
2023/06/01 00:55:21;;;;;;;11.40;6.87;;;;;;;18.06;100.00;101620.44;2106405;28;20833;-59
2023/06/01 00:56:22;;;;;;;12.33;6.90;;;;;;;17.62;100.00;101537.59;2107666;28;20433;-60
2023/06/01 00:57:26;;;;;;;14.70;7.20;;;;;;;18.18;100.00;101626.72;2109171;28;20448;-60
2023/06/01 00:58:26;;;;;;;11.67;7.23;;;;;;;18.26;100.00;101626.44;2106167;28;20195;-60
2023/06/01 00:59:27;;;;;;;10.57;7.57;;;;;;;17.96;100.00;101571.91;2106516;28;20482;-59
2023/06/01 01:00:29;;;;;;;13.70;7.93;;;;;;;18.14;100.00;101611.28;2106341;28;20179;-60
2023/06/01 01:01:31;;;;;;;12.50;7.20;;;;;;;18.25;100.00;101617.25;2106556;28;20262;-60
2023/06/01 01:02:31;;;;;;;11.40;7.23;;;;;;;18.45;100.00;101628.88;2106923;28;20925;-59
2023/06/01 01:03:32;;;;;;;15.60;7.13;;;;;;;18.50;100.00;101625.47;2115274;28;20829;-60
2023/06/01 01:04:32;;;;;;;11.23;7.03;;;;;;;18.55;100.00;101633.28;2113766;28;20202;-60
2023/06/01 01:05:34;;;;;;;12.67;6.90;;;;;;;18.59;100.00;101636.75;2115093;28;20667;-60
2023/06/01 01:06:57;;;;;;;9.40;6.90;;;;;;;18.63;100.00;101630.97;2109134;28;20199;-60
2023/06/01 01:07:59;;;;;;;13.77;7.17;;;;;;;18.18;100.00;101559.38;2114035;28;20454;-60
2023/06/01 01:09:37;;;;;;;13.47;6.40;;;;;;;18.72;100.00;101637.38;2114418;28;20440;-60
2023/06/01 01:10:37;;;;;;;9.70;6.27;;;;;;;18.77;100.00;101633.22;2095973;28;20437;-59
2023/06/01 01:11:41;;;;;;;14.60;6.30;;;;;;;18.77;100.00;101628.34;2104660;28;20497;-60
2023/06/01 01:12:53;;;;;;;11.60;6.33;;;;;;;18.81;100.00;101628.19;2106651;28;20207;-60
2023/06/01 01:14:04;;;;;;;14.73;7.33;;;;;;;17.88;100.00;101474.50;2106838;28;20405;-60
2023/06/01 01:15:25;;;;;;;13.27;6.40;;;;;;;18.85;100.00;101624.03;2106283;28;20401;-61
2023/06/01 01:16:35;;;;;;;11.13;6.53;;;;;;;18.89;100.00;101618.25;2106541;28;20412;-60
2023/06/01 01:17:48;;;;;;;11.63;6.30;;;;;;;18.91;100.00;101616.53;2114833;28;20569;-59
2023/06/01 01:19:01;;;;;;;11.73;7.17;;;;;;;18.94;100.00;101612.78;2114282;28;20423;-61
2023/06/01 01:20:26;;;;;;;14.50;6.20;;;;;;;18.94;100.00;101617.63;2112041;28;20916;-60
2023/06/01 01:21:32;;;;;;;18.50;6.77;;;;;;;18.97;100.00;101616.69;2111567;28;20475;-60
2023/06/01 01:22:40;;;;;;;8.77;6.10;;;;;;;18.99;100.00;101614.19;2114621;28;20462;-59
2023/06/01 01:23:59;;;;;;;15.17;6.53;;;;;;;18.99;100.00;101608.59;2114778;28;20819;-60
2023/06/01 01:25:25;;;;;;;14.33;6.33;;;;;;;19.00;100.00;101612.94;2108858;28;20971;-59
2023/06/01 01:26:35;;;;;;;11.87;6.53;;;;;;;19.04;100.00;101603.13;2113986;28;20821;-59
2023/06/01 01:28:07;;;;;;;11.73;5.87;;;;;;;18.21;100.00;101481.16;2114950;28;20465;-60
2023/06/01 01:29:09;;;;;;;12.30;6.27;;;;;;;19.03;100.00;101606.41;2097271;28;20500;-60
2023/06/01 01:30:11;;;;;;;13.73;6.63;;;;;;;18.82;100.00;101574.38;2106895;28;20408;-60
2023/06/01 01:31:32;;;;;;;12.80;6.27;;;;;;;19.03;100.00;101606.41;2115262;28;20447;-61
2023/06/01 01:32:35;;;;;;;12.03;5.63;;;;;;;19.06;100.00;101609.06;2106923;28;20449;-59
2023/06/01 01:33:36;;;;;;;12.63;7.23;;;;;;;19.08;100.00;101605.78;2114177;28;20420;-59
2023/06/01 01:34:38;;;;;;;10.83;6.13;;;;;;;18.90;100.00;101583.28;2106225;28;20948;-60
2023/06/01 01:35:39;;;;;;;16.77;6.43;;;;;;;19.03;100.00;101607.19;2114292;28;20944;-59
2023/06/01 01:36:41;;;;;;;12.33;6.37;;;;;;;19.08;100.00;101611.41;2106931;28;20488;-60
2023/06/01 01:37:52;;;;;;;15.40;6.67;;;;;;;19.08;100.00;101602.97;2112205;28;20193;-60
2023/06/01 01:38:52;;;;;;;12.77;5.93;;;;;;;19.04;100.00;101605.91;2108326;28;20953;-60
2023/06/01 01:39:52;;;;;;;14.00;6.60;;;;;;;19.03;100.00;101629.66;2111003;28;20491;-60
2023/06/01 01:40:53;;;;;;;12.47;6.33;;;;;;;19.01;100.00;101603.28;2114780;28;20222;-60
2023/06/01 01:41:53;;;;;;;9.70;5.97;;;;;;;19.04;100.00;101600.31;2114147;28;20178;-60
2023/06/01 01:42:55;;;;;;;13.37;6.43;;;;;;;19.04;100.00;101602.34;2114275;28;20174;-60
2023/06/01 01:43:58;;;;;;;14.10;5.90;;;;;;;19.03;100.00;101612.78;2114214;28;20209;-60
2023/06/01 01:44:59;;;;;;;16.47;7.30;;;;;;;19.07;100.00;101601.41;2114987;28;20940;-60
2023/06/01 01:46:18;;;;;;;13.63;6.57;;;;;;;19.08;100.00;101611.41;2106390;28;21002;-60
2023/06/01 01:47:25;;;;;;;14.20;6.50;;;;;;;19.08;100.00;101606.56;2105789;28;20327;-60
2023/06/01 01:48:52;;;;;;;10.00;6.10;;;;;;;19.09;100.00;101607.34;2106275;28;20409;-60
2023/06/01 01:49:58;;;;;;;13.53;6.80;;;;;;;19.08;100.00;101609.38;2090039;28;20441;-60
2023/06/01 01:51:04;;;;;;;16.80;6.47;;;;;;;19.09;100.00;101605.31;2107870;28;20544;-60
2023/06/01 01:52:07;;;;;;;11.37;6.30;;;;;;;19.08;100.00;101603.75;2114035;28;20416;-60
2023/06/01 01:53:09;;;;;;;17.20;6.37;;;;;;;19.07;100.00;101621.84;2114479;28;20423;-60
2023/06/01 01:54:11;;;;;;;9.83;5.73;;;;;;;19.03;100.00;101612.03;2114403;28;20416;-59
2023/06/01 01:55:12;;;;;;;15.93;6.80;;;;;;;19.10;100.00;101614.53;2106596;28;20955;-60
2023/06/01 01:56:13;;;;;;;14.30;6.43;;;;;;;19.14;100.00;101610.31;2106073;28;20459;-60
2023/06/01 01:57:14;;;;;;;13.40;6.73;;;;;;;19.16;100.00;101613.44;2106270;28;20480;-59
2023/06/01 01:58:16;;;;;;;12.20;7.00;;;;;;;18.59;100.00;101527.25;2105233;28;20226;-59
2023/06/01 01:59:17;;;;;;;10.50;6.17;;;;;;;19.17;100.00;101617.00;2105872;28;20528;-59
2023/06/01 02:00:19;;;;;;;15.93;6.37;;;;;;;19.18;100.00;101612.97;2108472;28;20413;-59
2023/06/01 02:01:20;;;;;;;12.63;6.20;;;;;;;19.08;100.00;101605.78;2114328;28;20459;-60
2023/06/01 02:02:20;;;;;;;13.07;6.83;;;;;;;19.09;100.00;101594.06;2113669;28;20412;-59
2023/06/01 02:03:21;;;;;;;12.03;6.53;;;;;;;19.19;100.00;101614.53;2106454;28;20251;-60
2023/06/01 02:04:21;;;;;;;10.47;6.53;;;;;;;19.19;100.00;101615.31;2105545;28;20243;-59
2023/06/01 02:05:22;;;;;;;11.60;6.40;;;;;;;19.20;100.00;101616.88;2112646;28;20235;-59
2023/06/01 02:06:22;;;;;;;18.17;6.50;;;;;;;19.21;100.00;101620.47;2114138;28;20197;-60
2023/06/01 02:07:23;;;;;;;12.20;5.87;;;;;;;19.22;100.00;101616.44;2110568;28;20240;-60
2023/06/01 02:08:23;;;;;;;12.50;6.30;;;;;;;19.23;100.00;101609.53;2107898;28;20853;-60
2023/06/01 02:09:23;;;;;;;12.57;6.33;;;;;;;19.24;100.00;101623.13;2113967;28;20178;-60
2023/06/01 02:10:24;;;;;;;16.87;6.47;;;;;;;19.22;100.00;101611.59;2114433;28;20198;-60
2023/06/01 02:11:24;;;;;;;9.27;5.77;;;;;;;19.22;100.00;101616.44;2114848;28;20173;-59
2023/06/01 02:12:25;;;;;;;11.87;6.40;;;;;;;19.22;100.00;101616.44;2114143;28;20192;-60
2023/06/01 02:13:25;;;;;;;17.07;6.53;;;;;;;19.21;100.00;101615.63;2113749;28;20287;-60
2023/06/01 02:14:26;;;;;;;15.73;6.30;;;;;;;19.20;100.00;101618.91;2107852;28;20205;-60
2023/06/01 02:15:26;;;;;;;15.47;6.90;;;;;;;19.20;100.00;101614.06;2105573;28;20201;-60
2023/06/01 02:16:26;;;;;;;15.07;6.37;;;;;;;19.16;100.00;101604.22;2106035;28;20328;-59
2023/06/01 02:17:27;;;;;;;19.43;6.70;;;;;;;19.21;100.00;101615.63;2107957;28;20189;-60
2023/06/01 02:18:29;;;;;;;17.53;6.20;;;;;;;19.22;100.00;101608.78;2113811;28;20211;-60
2023/06/01 02:19:30;;;;;;;12.83;6.50;;;;;;;18.66;100.00;101529.75;2114007;28;20212;-60
2023/06/01 02:20:30;;;;;;;15.40;6.17;;;;;;;18.76;100.00;101553.78;2106117;28;20428;-60
2023/06/01 02:21:31;;;;;;;9.30;6.03;;;;;;;19.20;100.00;101619.69;2112445;28;20224;-59
2023/06/01 02:22:31;;;;;;;14.60;6.60;;;;;;;19.22;100.00;101620.03;2108676;28;20200;-60
2023/06/01 02:23:31;;;;;;;15.73;6.57;;;;;;;19.28;100.00;101620.16;2105578;28;20802;-60
2023/06/01 02:24:32;;;;;;;13.47;6.53;;;;;;;19.23;100.00;101610.34;2108328;28;20670;-60
2023/06/01 02:25:32;;;;;;;14.03;6.40;;;;;;;19.23;100.00;101618.78;2112428;28;20671;-61
2023/06/01 02:26:33;;;;;;;14.63;6.37;;;;;;;18.94;100.00;101578.31;2106523;28;20699;-60
2023/06/01 02:27:34;;;;;;;9.87;6.07;;;;;;;19.28;100.00;101620.97;2114779;28;20280;-60
2023/06/01 02:28:40;;;;;;;11.37;6.20;;;;;;;19.28;100.00;101614.53;2105821;28;20255;-60
2023/06/01 02:29:41;;;;;;;15.07;6.40;;;;;;;19.24;100.00;101625.94;2105496;28;20210;-61
2023/06/01 02:30:41;;;;;;;11.47;6.43;;;;;;;19.27;100.00;101621.41;2112106;28;20536;-60
2023/06/01 02:31:41;;;;;;;12.73;6.10;;;;;;;19.26;100.00;101620.66;2114165;27;20205;-60
2023/06/01 02:32:45;;;;;;;18.47;7.03;;;;;;;19.27;100.00;101622.22;2110117;28;20543;-60
2023/06/01 02:33:45;;;;;;;12.80;5.97;;;;;;;19.26;100.00;101626.28;2108978;28;20192;-60
2023/06/01 02:34:45;;;;;;;12.27;5.97;;;;;;;19.28;100.00;101626.56;2113704;28;20454;-61
2023/06/01 02:35:46;;;;;;;16.67;6.63;;;;;;;19.28;100.00;101623.78;2113751;28;20176;-60
2023/06/01 02:36:48;;;;;;;13.30;6.27;;;;;;;18.81;100.00;101558.78;2114662;28;20182;-60
2023/06/01 02:37:48;;;;;;;17.67;7.00;;;;;;;18.82;100.00;101565.97;2106057;28;20194;-60
2023/06/01 02:38:48;;;;;;;14.83;6.10;;;;;;;19.27;100.00;101636.25;2105608;28;20487;-60
2023/06/01 02:39:49;;;;;;;13.93;6.40;;;;;;;19.27;100.00;101630.66;2105713;28;20193;-60
2023/06/01 02:40:49;;;;;;;12.53;6.27;;;;;;;19.28;100.00;101635.00;2109428;28;20306;-60
2023/06/01 02:41:50;;;;;;;14.00;6.07;;;;;;;19.29;100.00;101630.19;2110475;28;20190;-60
2023/06/01 02:42:50;;;;;;;14.30;6.20;;;;;;;19.28;100.00;101622.97;2107951;28;20178;-60
2023/06/01 02:43:51;;;;;;;10.63;6.03;;;;;;;19.27;100.00;101627.03;2113010;28;20193;-60
2023/06/01 02:44:51;;;;;;;16.90;6.50;;;;;;;19.25;100.00;101635.16;2105918;28;20268;-59
2023/06/01 02:45:52;;;;;;;17.77;6.20;;;;;;;19.25;100.00;101633.13;2114018;28;20209;-60
2023/06/01 02:46:52;;;;;;;13.83;6.10;;;;;;;19.24;100.00;101631.56;2114453;28;20190;-60
2023/06/01 02:47:53;;;;;;;11.70;5.93;;;;;;;19.26;100.00;101625.50;2113847;28;20193;-59
2023/06/01 02:48:53;;;;;;;17.43;6.60;;;;;;;19.26;100.00;101631.09;2113718;28;20235;-60
2023/06/01 02:49:53;;;;;;;15.20;6.73;;;;;;;19.25;100.00;101633.13;2113770;28;20199;-60
2023/06/01 02:50:54;;;;;;;12.10;6.00;;;;;;;19.29;100.00;101625.31;2113991;28;20220;-61
2023/06/01 02:51:55;;;;;;;15.27;6.40;;;;;;;19.26;100.00;101633.91;2113082;28;20664;-60
2023/06/01 02:52:56;;;;;;;14.17;6.10;;;;;;;19.26;100.00;101631.09;2114740;28;20810;-60
2023/06/01 02:53:56;;;;;;;11.70;6.60;;;;;;;19.21;100.00;101617.66;2106071;28;20190;-60
2023/06/01 02:54:57;;;;;;;14.33;6.23;;;;;;;19.26;100.00;101629.09;2112319;28;20245;-60
2023/06/01 02:55:57;;;;;;;17.37;6.33;;;;;;;19.29;100.00;101630.94;2107891;28;20205;-60
2023/06/01 02:56:58;;;;;;;17.47;6.67;;;;;;;19.07;100.00;101599.38;2106085;28;20211;-61
2023/06/01 02:57:58;;;;;;;11.00;5.90;;;;;;;19.27;100.00;101618.59;2109335;28;20197;-60
2023/06/01 02:58:58;;;;;;;11.77;5.70;;;;;;;19.27;100.00;101621.41;2111259;28;20201;-60
2023/06/01 02:59:59;;;;;;;18.20;6.07;;;;;;;19.27;100.00;101633.47;2106513;28;20190;-60
2023/06/01 03:00:59;;;;;;;13.20;5.83;;;;;;;19.26;100.00;101631.09;2114128;28;20744;-60
2023/06/01 03:02:00;;;;;;;13.80;5.90;;;;;;;19.27;100.00;101625.03;2113102;28;20186;-60
2023/06/01 03:03:00;;;;;;;10.60;5.63;;;;;;;19.09;100.00;101596.88;2114180;28;20190;-60
2023/06/01 03:04:04;;;;;;;11.47;6.13;;;;;;;19.31;100.00;101625.66;2113577;28;20217;-60
2023/06/01 03:05:06;;;;;;;15.10;5.90;;;;;;;19.00;100.00;101580.03;2114175;28;20205;-60
2023/06/01 03:06:06;;;;;;;14.63;6.00;;;;;;;19.27;100.00;101619.41;2114014;28;20463;-60
2023/06/01 03:07:06;;;;;;;13.83;5.70;;;;;;;19.20;100.00;101624.53;2113992;28;20447;-60
2023/06/01 03:08:07;;;;;;;12.90;6.13;;;;;;;19.21;100.00;101628.88;2114067;28;20174;-60
2023/06/01 03:09:12;;;;;;;11.80;6.03;;;;;;;19.24;100.00;101639.25;2113642;28;20419;-60
2023/06/01 03:10:13;;;;;;;13.63;6.00;;;;;;;19.24;100.00;101637.19;2113687;28;20159;-61
2023/06/01 03:11:13;;;;;;;16.07;6.23;;;;;;;19.28;100.00;101639.84;2114557;28;20514;-61
2023/06/01 03:12:14;;;;;;;12.37;7.00;;;;;;;19.28;100.00;101640.63;2105554;28;20193;-60
2023/06/01 03:13:14;;;;;;;16.17;6.27;;;;;;;19.30;100.00;101638.13;2109750;28;20301;-60
2023/06/01 03:14:15;;;;;;;14.47;6.80;;;;;;;19.29;100.00;101641.44;2112952;28;20203;-60
2023/06/01 03:15:15;;;;;;;16.47;6.63;;;;;;;19.29;100.00;101630.94;2109878;28;20197;-60
2023/06/01 03:16:16;;;;;;;13.77;6.13;;;;;;;19.29;100.00;101630.19;2105470;28;21370;-60
2023/06/01 03:17:16;;;;;;;10.87;6.00;;;;;;;19.30;100.00;101640.16;2107292;28;20183;-61
2023/06/01 03:18:17;;;;;;;13.10;5.83;;;;;;;19.30;100.00;101642.97;2113729;28;20419;-60
2023/06/01 03:19:17;;;;;;;13.90;5.67;;;;;;;19.30;100.00;101640.16;2113619;28;20173;-61
2023/06/01 03:20:18;;;;;;;14.83;6.43;;;;;;;18.71;100.00;101556.41;2106364;28;20282;-61
2023/06/01 03:21:18;;;;;;;13.63;6.10;;;;;;;19.32;100.00;101634.84;2111301;28;20261;-60
2023/06/01 03:22:19;;;;;;;13.77;6.23;;;;;;;19.31;100.00;101634.09;2112845;28;20666;-60
2023/06/01 03:23:19;;;;;;;16.73;6.90;;;;;;;19.32;100.00;101629.22;2109066;28;20537;-60
2023/06/01 03:24:21;;;;;;;13.33;6.37;;;;;;;19.33;100.00;101631.56;2107706;28;20254;-60
2023/06/01 03:25:21;;;;;;;11.80;5.80;;;;;;;19.34;100.00;101629.56;2112040;28;20169;-60
2023/06/01 03:26:22;;;;;;;12.73;6.10;;;;;;;19.36;100.00;101632.66;2105917;28;20408;-60
2023/06/01 03:27:22;;;;;;;16.03;6.43;;;;;;;19.33;100.00;101628.78;2114189;28;20210;-60
2023/06/01 03:28:22;;;;;;;10.10;5.73;;;;;;;19.35;100.00;101622.69;2105668;28;20202;-60
2023/06/01 03:29:23;;;;;;;13.10;5.87;;;;;;;18.92;100.00;101567.53;2105329;28;20189;-60
2023/06/01 03:32:20;;;;;;;10.03;5.57;;;;;;;19.33;100.00;101633.59;2098664;28;20192;-61
2023/06/01 03:33:20;;;;;;;14.80;6.43;;;;;;;19.32;100.00;101630.03;2113307;28;20431;-60
2023/06/01 03:34:21;;;;;;;13.53;5.63;;;;;;;19.36;100.00;101635.47;2108717;28;20191;-60
2023/06/01 03:35:21;;;;;;;11.93;6.40;;;;;;;19.33;100.00;101625.97;2113342;28;20196;-61
2023/06/01 03:36:22;;;;;;;11.30;6.03;;;;;;;19.35;100.00;101642.34;2112089;28;20660;-61
2023/06/01 03:37:22;;;;;;;14.73;5.70;;;;;;;19.37;100.00;101631.41;2113338;28;20251;-61
2023/06/01 03:38:22;;;;;;;10.77;6.10;;;;;;;19.40;100.00;101639.69;2113064;28;20170;-61
2023/06/01 03:39:23;;;;;;;10.67;5.70;;;;;;;19.37;100.00;101629.41;2113237;28;20265;-61
2023/06/01 03:40:23;;;;;;;13.30;5.83;;;;;;;19.37;100.00;101639.84;2106224;28;20173;-62
2023/06/01 03:41:24;;;;;;;12.20;6.50;;;;;;;19.28;100.00;101620.16;2113422;28;20224;-60
2023/06/01 03:42:24;;;;;;;12.70;6.17;;;;;;;19.39;100.00;101640.19;2107103;28;20236;-61
2023/06/01 03:43:24;;;;;;;15.03;5.60;;;;;;;19.41;100.00;101641.28;2109875;28;20212;-61
2023/06/01 03:44:25;;;;;;;12.30;6.13;;;;;;;19.39;100.00;101640.19;2112790;28;20562;-61
2023/06/01 03:45:26;;;;;;;10.30;5.80;;;;;;;19.40;100.00;101639.69;2113243;28;20673;-61
2023/06/01 03:46:26;;;;;;;6.97;5.53;;;;;;;19.35;100.00;101631.88;2112058;28;20172;-61
2023/06/01 03:47:26;;;;;;;13.90;6.57;;;;;;;19.42;100.00;101640.03;2105483;28;20210;-61
2023/06/01 03:48:27;;;;;;;10.53;5.97;;;;;;;19.17;100.00;101597.34;2113457;28;20554;-62
2023/06/01 03:49:27;;;;;;;12.93;6.23;;;;;;;19.08;100.00;101584.09;2106064;28;20456;-61
2023/06/01 03:50:28;;;;;;;13.17;6.17;;;;;;;19.39;100.00;101634.56;2111899;28;20230;-60
2023/06/01 03:51:28;;;;;;;9.07;6.13;;;;;;;19.45;100.00;101638.31;2113772;28;20182;-61
2023/06/01 03:52:29;;;;;;;9.10;5.87;;;;;;;18.90;100.00;101553.19;2112962;28;20194;-61
2023/06/01 03:53:31;;;;;;;10.47;5.60;;;;;;;19.49;100.00;101644.56;2110360;28;20247;-60
2023/06/01 03:54:31;;;;;;;12.57;6.60;;;;;;;19.47;100.00;101639.41;2106652;28;20400;-59
2023/06/01 03:55:32;;;;;;;10.77;6.40;;;;;;;19.50;100.00;101637.69;2112541;28;20912;-60
2023/06/01 03:57:51;;;;;;;13.73;6.43;;;;;;;19.51;100.00;101640.03;2112467;28;20162;-64
2023/06/01 03:58:52;;;;;;;11.27;5.73;;;;;;;19.53;100.00;101654.38;2112198;28;20511;-65
2023/06/01 03:59:52;;;;;;;10.77;6.10;;;;;;;19.53;100.00;101657.19;2104700;28;20209;-65
2023/06/01 04:00:54;;;;;;;10.30;6.03;;;;;;;19.52;100.00;101635.97;2112302;28;20190;-63
2023/06/01 04:01:55;;;;;;;14.27;6.13;;;;;;;19.53;100.00;101636.72;2112773;28;20193;-63
2023/06/01 04:02:58;;;;;;;9.03;6.03;;;;;;;19.57;100.00;101634.53;2108620;28;20505;-63
2023/06/01 04:03:59;;;;;;;11.77;6.53;;;;;;;18.95;100.00;101544.13;2111327;28;20455;-63
2023/06/01 04:05:00;;;;;;;9.33;6.17;;;;;;;19.56;100.00;101635.78;2113438;28;20451;-63
2023/06/01 04:06:01;;;;;;;11.50;6.10;;;;;;;19.58;100.00;101636.88;2111954;28;20416;-63
2023/06/01 04:07:03;;;;;;;16.13;6.57;;;;;;;19.61;100.00;101635.97;2113574;28;20222;-63
2023/06/01 04:08:04;;;;;;;12.43;6.50;;;;;;;19.60;100.00;101634.38;2112966;28;20841;-63
2023/06/01 04:09:09;;;;;;;13.83;6.90;;;;;;;19.63;100.00;101643.91;2113145;28;20426;-63
2023/06/01 04:10:11;;;;;;;13.23;6.90;;;;;;;19.66;100.00;101638.09;2112492;28;20198;-63
2023/06/01 04:11:11;;;;;;;16.97;7.00;;;;;;;19.65;100.00;101638.59;2106594;28;20468;-63
2023/06/01 04:12:12;;;;;;;10.47;6.60;;;;;;;19.66;100.00;101643.72;2104452;28;20502;-63
2023/06/01 04:13:13;;;;;;;11.73;6.40;;;;;;;19.68;100.00;101641.25;2105194;28;20652;-63
2023/06/01 04:14:13;;;;;;;8.17;6.40;;;;;;;19.66;100.00;101632.47;2109132;28;20814;-64
2023/06/01 04:15:16;;;;;;;18.10;7.10;;;;;;;19.65;100.00;101627.34;2107459;28;20174;-63
2023/06/01 04:16:16;;;;;;;14.20;7.00;;;;;;;19.60;100.00;101627.97;2111395;28;20261;-63
2023/06/01 04:17:16;;;;;;;12.67;6.67;;;;;;;19.68;100.00;101632.81;2104920;28;20413;-64
2023/06/01 04:18:17;;;;;;;10.60;6.57;;;;;;;19.69;100.00;101627.94;2113938;28;20595;-65
2023/06/01 04:19:17;;;;;;;16.87;8.13;;;;;;;19.71;100.00;101636.72;2112787;28;20675;-65
2023/06/01 04:20:18;;;;;;;13.50;6.77;;;;;;;19.75;100.00;101635.28;2112679;28;20278;-63
2023/06/01 04:21:21;;;;;;;15.97;7.23;;;;;;;19.78;100.00;101633.56;2113390;28;20201;-64
2023/06/01 04:22:22;;;;;;;10.30;6.60;;;;;;;19.78;100.00;101637.19;2108487;28;20308;-63
2023/06/01 04:23:22;;;;;;;10.30;6.77;;;;;;;19.18;100.00;101537.88;2108117;28;20529;-61
2023/06/01 04:24:23;;;;;;;10.47;6.63;;;;;;;19.83;100.00;101633.72;2110591;28;20178;-62
2023/06/01 04:25:24;;;;;;;10.80;6.60;;;;;;;19.85;100.00;101628.41;2105331;28;20167;-63
2023/06/01 04:26:27;;;;;;;14.07;7.73;;;;;;;19.90;100.00;101630.56;2109416;28;20530;-64
2023/06/01 04:27:27;;;;;;;16.47;8.00;;;;;;;19.92;100.00;101639.34;2104742;28;20408;-63
2023/06/01 04:28:29;;;;;;;12.77;6.53;;;;;;;19.95;100.00;101635.56;2104598;28;20511;-64
2023/06/01 04:29:30;;;;;;;8.63;6.50;;;;;;;19.96;100.00;101641.97;2111191;28;20740;-63
2023/06/01 04:30:30;;;;;;;14.97;7.17;;;;;;;19.96;100.00;101645.56;2107539;28;20855;-64
2023/06/01 04:31:32;;;;;;;14.63;7.20;;;;;;;20.01;100.00;101644.16;2108884;28;20198;-63
2023/06/01 04:32:39;;;;;;;13.27;7.40;;;;;;;20.03;100.00;101642.44;2110517;28;20189;-63
2023/06/01 04:33:40;;;;;;;14.10;7.03;;;;;;;20.06;100.00;101637.91;2112829;28;20439;-65
2023/06/01 04:34:40;;;;;;;15.20;7.53;;;;;;;20.07;100.00;101639.44;2113044;28;20428;-62
2023/06/01 04:35:43;;;;;;;14.53;8.20;;;;;;;20.07;100.00;101648.69;2120662;27;20178;-61
2023/06/01 04:36:44;;;;;;;16.67;7.27;;;;;;;20.07;100.00;101643.06;2113613;28;20182;-61
2023/06/01 04:37:44;;;;;;;12.73;6.90;;;;;;;20.05;100.00;101637.09;2103923;28;20459;-61
2023/06/01 04:38:46;;;;;;;12.10;6.50;;;;;;;20.11;100.00;101645.72;2110095;28;20471;-62
2023/06/01 04:39:51;;;;;;;10.77;7.30;;;;;;;20.13;100.00;101640.41;2108415;28;20698;-62
2023/06/01 04:40:53;;;;;;;12.17;6.90;;;;;;;20.14;100.00;101645.56;2109923;28;20471;-61
2023/06/01 04:41:55;;;;;;;10.50;6.40;;;;;;;19.74;100.00;101579.50;2109427;28;20448;-63
2023/06/01 04:42:56;;;;;;;12.43;7.30;;;;;;;20.14;100.00;101642.75;2108596;28;20440;-62
2023/06/01 04:44:00;;;;;;;11.67;6.60;;;;;;;20.15;100.00;101644.28;2105074;28;20455;-61
2023/06/01 04:45:04;;;;;;;12.27;6.73;;;;;;;20.21;100.00;101641.63;2108443;28;20968;-61
2023/06/01 04:46:05;;;;;;;14.40;6.87;;;;;;;20.24;100.00;101644.28;2110170;28;20431;-62